sensor_id;sensor_type;location;lat;lon;timestamp;pressure;altitude;pressure_sealevel;temperature;humidity
53960;BME280;39866;48.638;-2.020;2022-09-17T00:02:02;101969.59;;;20.88;36.03
53960;BME280;39866;48.638;-2.020;2022-09-17T00:04:29;101960.22;;;20.95;36.16
53960;BME280;39866;48.638;-2.020;2022-09-17T00:06:55;101965.16;;;20.87;36.41
53960;BME280;39866;48.638;-2.020;2022-09-17T00:09:20;101968.31;;;20.77;36.90
53960;BME280;39866;48.638;-2.020;2022-09-17T00:11:46;101966.06;;;20.86;37.11
53960;BME280;39866;48.638;-2.020;2022-09-17T00:14:14;101979.41;;;20.90;37.16
53960;BME280;39866;48.638;-2.020;2022-09-17T00:16:42;101974.75;;;20.92;36.94
53960;BME280;39866;48.638;-2.020;2022-09-17T00:19:20;101972.69;;;20.80;36.73
53960;BME280;39866;48.638;-2.020;2022-09-17T00:21:47;101964.03;;;20.91;36.96
53960;BME280;39866;48.638;-2.020;2022-09-17T00:24:13;101976.50;;;20.93;36.79
53960;BME280;39866;48.638;-2.020;2022-09-17T00:26:39;101973.72;;;20.77;35.55
53960;BME280;39866;48.638;-2.020;2022-09-17T00:29:05;101975.09;;;20.69;35.85
53960;BME280;39866;48.638;-2.020;2022-09-17T00:31:31;101976.19;;;20.65;35.67
53960;BME280;39866;48.638;-2.020;2022-09-17T00:33:57;101964.81;;;20.58;35.34
53960;BME280;39866;48.638;-2.020;2022-09-17T00:36:23;101971.69;;;20.46;35.82
53960;BME280;39866;48.638;-2.020;2022-09-17T00:38:54;101975.25;;;20.29;34.93
53960;BME280;39866;48.638;-2.020;2022-09-17T00:41:20;101979.72;;;20.48;35.33
53960;BME280;39866;48.638;-2.020;2022-09-17T00:43:49;101978.75;;;20.50;35.39
53960;BME280;39866;48.638;-2.020;2022-09-17T00:46:37;101973.00;;;20.57;35.62
53960;BME280;39866;48.638;-2.020;2022-09-17T00:49:21;101975.09;;;20.69;35.50
53960;BME280;39866;48.638;-2.020;2022-09-17T00:51:58;101982.66;;;20.62;34.91
53960;BME280;39866;48.638;-2.020;2022-09-17T00:54:25;101982.41;;;20.67;34.35
53960;BME280;39866;48.638;-2.020;2022-09-17T00:56:50;101975.25;;;20.66;34.46
53960;BME280;39866;48.638;-2.020;2022-09-17T00:59:17;101973.56;;;20.63;34.17
53960;BME280;39866;48.638;-2.020;2022-09-17T01:01:44;101977.88;;;20.67;33.76
53960;BME280;39866;48.638;-2.020;2022-09-17T01:04:17;101977.25;;;20.62;34.05
53960;BME280;39866;48.638;-2.020;2022-09-17T01:15:46;101982.66;;;20.43;34.41
53960;BME280;39866;48.638;-2.020;2022-09-17T01:18:31;101985.25;;;20.27;33.78
53960;BME280;39866;48.638;-2.020;2022-09-17T01:26:52;101986.00;;;20.50;34.42
53960;BME280;39866;48.638;-2.020;2022-09-17T01:29:48;101978.81;;;20.49;34.26
53960;BME280;39866;48.638;-2.020;2022-09-17T01:32:35;101989.19;;;20.58;34.29
53960;BME280;39866;48.638;-2.020;2022-09-17T01:38:12;101984.78;;;20.37;34.42
53960;BME280;39866;48.638;-2.020;2022-09-17T01:41:16;101990.78;;;20.43;34.14
53960;BME280;39866;48.638;-2.020;2022-09-17T01:43:50;101990.34;;;20.52;34.57
53960;BME280;39866;48.638;-2.020;2022-09-17T01:46:22;101992.44;;;20.65;34.79
53960;BME280;39866;48.638;-2.020;2022-09-17T01:48:50;101997.22;;;20.60;34.30
53960;BME280;39866;48.638;-2.020;2022-09-17T01:51:22;102003.59;;;20.40;33.87
53960;BME280;39866;48.638;-2.020;2022-09-17T01:56:25;101992.00;;;20.19;34.05
53960;BME280;39866;48.638;-2.020;2022-09-17T01:58:58;101996.66;;;20.34;34.56
53960;BME280;39866;48.638;-2.020;2022-09-17T02:01:27;101997.03;;;20.26;33.93
53960;BME280;39866;48.638;-2.020;2022-09-17T02:06:28;101978.81;;;20.49;34.35
53960;BME280;39866;48.638;-2.020;2022-09-17T02:09:00;101992.47;;;20.46;33.91
53960;BME280;39866;48.638;-2.020;2022-09-17T02:11:27;101993.63;;;20.04;34.78
53960;BME280;39866;48.638;-2.020;2022-09-17T02:13:58;101992.09;;;20.17;34.58
53960;BME280;39866;48.638;-2.020;2022-09-17T02:16:26;101998.63;;;20.31;34.13
53960;BME280;39866;48.638;-2.020;2022-09-17T02:18:57;101991.50;;;20.29;34.56
53960;BME280;39866;48.638;-2.020;2022-09-17T02:26:33;102002.53;;;20.25;34.84
53960;BME280;39866;48.638;-2.020;2022-09-17T02:29:06;102008.22;;;20.38;34.84
53960;BME280;39866;48.638;-2.020;2022-09-17T02:31:33;102002.41;;;20.45;34.45
53960;BME280;39866;48.638;-2.020;2022-09-17T02:34:01;102002.47;;;20.44;34.10
53960;BME280;39866;48.638;-2.020;2022-09-17T02:36:29;102004.53;;;20.39;34.26
53960;BME280;39866;48.638;-2.020;2022-09-17T02:39:00;102006.47;;;20.18;34.16
53960;BME280;39866;48.638;-2.020;2022-09-17T02:44:17;102011.56;;;20.24;34.25
53960;BME280;39866;48.638;-2.020;2022-09-17T02:54:50;102011.91;;;19.80;34.96
53960;BME280;39866;48.638;-2.020;2022-09-17T03:00:37;102015.84;;;19.92;34.66
53960;BME280;39866;48.638;-2.020;2022-09-17T03:03:11;102016.19;;;20.03;34.91
53960;BME280;39866;48.638;-2.020;2022-09-17T03:05:38;102020.06;;;20.16;34.60
53960;BME280;39866;48.638;-2.020;2022-09-17T03:08:07;102022.72;;;19.99;34.81
53960;BME280;39866;48.638;-2.020;2022-09-17T03:10:33;102025.47;;;20.16;34.68
53960;BME280;39866;48.638;-2.020;2022-09-17T03:12:59;102027.38;;;19.95;34.96
53960;BME280;39866;48.638;-2.020;2022-09-17T03:15:24;102026.56;;;20.12;34.79
53960;BME280;39866;48.638;-2.020;2022-09-17T03:17:50;102026.38;;;19.98;34.67
53960;BME280;39866;48.638;-2.020;2022-09-17T03:20:15;102026.22;;;19.82;34.25
53960;BME280;39866;48.638;-2.020;2022-09-17T03:22:41;102029.41;;;19.71;34.78
53960;BME280;39866;48.638;-2.020;2022-09-17T03:25:07;102022.50;;;19.85;35.22
53960;BME280;39866;48.638;-2.020;2022-09-17T03:27:33;102020.22;;;19.94;34.79
53960;BME280;39866;48.638;-2.020;2022-09-17T03:29:58;102012.75;;;19.99;34.83
53960;BME280;39866;48.638;-2.020;2022-09-17T03:32:24;102016.59;;;19.76;34.96
53960;BME280;39866;48.638;-2.020;2022-09-17T03:34:49;102017.44;;;19.77;33.81
53960;BME280;39866;48.638;-2.020;2022-09-17T03:37:15;102011.75;;;19.83;34.38
53960;BME280;39866;48.638;-2.020;2022-09-17T03:39:40;102020.53;;;19.88;34.52
53960;BME280;39866;48.638;-2.020;2022-09-17T03:42:06;102013.72;;;19.79;34.26
53960;BME280;39866;48.638;-2.020;2022-09-17T03:44:31;102026.22;;;20.01;34.88
53960;BME280;39866;48.638;-2.020;2022-09-17T03:46:56;102016.56;;;20.14;35.35
53960;BME280;39866;48.638;-2.020;2022-09-17T03:49:22;102017.22;;;20.19;34.85
53960;BME280;39866;48.638;-2.020;2022-09-17T03:51:48;102011.44;;;20.08;34.01
53960;BME280;39866;48.638;-2.020;2022-09-17T03:54:14;102021.34;;;20.09;34.04
53960;BME280;39866;48.638;-2.020;2022-09-17T03:56:39;102027.31;;;19.97;34.61
53960;BME280;39866;48.638;-2.020;2022-09-17T03:59:04;102029.44;;;19.90;34.53
53960;BME280;39866;48.638;-2.020;2022-09-17T04:01:30;102029.78;;;19.83;33.87
53960;BME280;39866;48.638;-2.020;2022-09-17T04:03:55;102032.97;;;19.92;34.34
53960;BME280;39866;48.638;-2.020;2022-09-17T04:06:21;102028.84;;;19.84;34.31
53960;BME280;39866;48.638;-2.020;2022-09-17T04:08:46;102025.34;;;20.00;34.79
53960;BME280;39866;48.638;-2.020;2022-09-17T04:11:12;102035.72;;;20.10;35.31
53960;BME280;39866;48.638;-2.020;2022-09-17T04:13:37;102036.22;;;20.18;35.93
53960;BME280;39866;48.638;-2.020;2022-09-17T04:16:03;102034.16;;;20.23;36.29
53960;BME280;39866;48.638;-2.020;2022-09-17T04:18:28;102036.59;;;20.29;36.15
53960;BME280;39866;48.638;-2.020;2022-09-17T04:20:54;102032.94;;;20.30;35.96
53960;BME280;39866;48.638;-2.020;2022-09-17T04:23:19;102032.69;;;20.35;36.45
53960;BME280;39866;48.638;-2.020;2022-09-17T04:25:45;102038.84;;;20.38;36.72
53960;BME280;39866;48.638;-2.020;2022-09-17T04:28:10;102039.47;;;20.43;37.19
53960;BME280;39866;48.638;-2.020;2022-09-17T04:30:36;102033.56;;;20.35;36.97
53960;BME280;39866;48.638;-2.020;2022-09-17T04:33:02;102032.59;;;20.36;37.28
53960;BME280;39866;48.638;-2.020;2022-09-17T04:35:27;102036.19;;;20.37;37.54
53960;BME280;39866;48.638;-2.020;2022-09-17T04:37:53;102035.53;;;20.32;37.46
53960;BME280;39866;48.638;-2.020;2022-09-17T04:40:20;102041.09;;;20.28;37.37
53960;BME280;39866;48.638;-2.020;2022-09-17T04:42:45;102033.38;;;20.21;37.89
53960;BME280;39866;48.638;-2.020;2022-09-17T04:45:11;102037.88;;;20.20;38.42
53960;BME280;39866;48.638;-2.020;2022-09-17T04:47:39;102037.84;;;20.22;38.64
53960;BME280;39866;48.638;-2.020;2022-09-17T04:50:05;102038.94;;;20.18;38.91
53960;BME280;39866;48.638;-2.020;2022-09-17T04:52:30;102038.06;;;20.17;38.88
53960;BME280;39866;48.638;-2.020;2022-09-17T04:54:56;102036.28;;;20.16;39.31
53960;BME280;39866;48.638;-2.020;2022-09-17T04:57:22;102035.50;;;20.14;39.75
53960;BME280;39866;48.638;-2.020;2022-09-17T04:59:49;102038.19;;;20.14;39.63
53960;BME280;39866;48.638;-2.020;2022-09-17T05:02:15;102042.97;;;20.09;39.72
53960;BME280;39866;48.638;-2.020;2022-09-17T05:04:40;102045.06;;;20.02;39.17
53960;BME280;39866;48.638;-2.020;2022-09-17T05:07:05;102044.28;;;20.00;39.38
53960;BME280;39866;48.638;-2.020;2022-09-17T05:09:31;102050.47;;;20.02;39.99
53960;BME280;39866;48.638;-2.020;2022-09-17T05:11:56;102049.28;;;20.08;40.01
53960;BME280;39866;48.638;-2.020;2022-09-17T05:14:21;102048.19;;;20.12;40.02
53960;BME280;39866;48.638;-2.020;2022-09-17T05:16:47;102048.19;;;20.12;39.84
53960;BME280;39866;48.638;-2.020;2022-09-17T05:19:12;102051.94;;;20.10;40.14
53960;BME280;39866;48.638;-2.020;2022-09-17T05:21:37;102047.56;;;20.07;40.11
53960;BME280;39866;48.638;-2.020;2022-09-17T05:24:03;102053.25;;;20.01;40.13
53960;BME280;39866;48.638;-2.020;2022-09-17T05:26:28;102023.13;;;19.71;39.50
53960;BME280;39866;48.638;-2.020;2022-09-17T05:28:54;102053.25;;;19.82;40.00
53960;BME280;39866;48.638;-2.020;2022-09-17T05:31:19;102045.88;;;19.86;40.33
53960;BME280;39866;48.638;-2.020;2022-09-17T05:33:44;102050.31;;;19.87;40.09
53960;BME280;39866;48.638;-2.020;2022-09-17T05:36:10;102059.53;;;19.83;40.40
53960;BME280;39866;48.638;-2.020;2022-09-17T05:38:35;102066.00;;;19.78;40.10
53960;BME280;39866;48.638;-2.020;2022-09-17T05:41:04;102065.75;;;19.85;40.58
53960;BME280;39866;48.638;-2.020;2022-09-17T05:43:31;102064.06;;;19.82;40.54
53960;BME280;39866;48.638;-2.020;2022-09-17T05:46:03;102064.13;;;19.81;40.31
53960;BME280;39866;48.638;-2.020;2022-09-17T05:48:29;102056.91;;;19.81;41.26
53960;BME280;39866;48.638;-2.020;2022-09-17T05:50:55;102064.47;;;19.73;39.81
53960;BME280;39866;48.638;-2.020;2022-09-17T05:53:21;102065.91;;;19.61;40.32
53960;BME280;39866;48.638;-2.020;2022-09-17T05:55:46;102062.25;;;19.62;40.98
53960;BME280;39866;48.638;-2.020;2022-09-17T05:58:16;102067.84;;;19.58;40.36
53960;BME280;39866;48.638;-2.020;2022-09-17T06:00:43;102063.41;;;19.57;40.43
53960;BME280;39866;48.638;-2.020;2022-09-17T06:03:11;102061.56;;;19.57;40.37
53960;BME280;39866;48.638;-2.020;2022-09-17T06:05:36;102063.41;;;19.57;40.62
53960;BME280;39866;48.638;-2.020;2022-09-17T06:08:02;102071.53;;;19.55;40.77
53960;BME280;39866;48.638;-2.020;2022-09-17T06:10:27;102075.94;;;19.58;41.39
53960;BME280;39866;48.638;-2.020;2022-09-17T06:12:57;102086.66;;;19.59;40.97
53960;BME280;39866;48.638;-2.020;2022-09-17T06:15:22;102080.34;;;19.60;40.86
53960;BME280;39866;48.638;-2.020;2022-09-17T06:17:48;102092.28;;;19.54;40.49
53960;BME280;39866;48.638;-2.020;2022-09-17T06:20:13;102096.50;;;19.62;40.73
53960;BME280;39866;48.638;-2.020;2022-09-17T06:22:40;102099.09;;;19.65;40.67
53960;BME280;39866;48.638;-2.020;2022-09-17T06:25:06;102094.63;;;19.64;40.50
53960;BME280;39866;48.638;-2.020;2022-09-17T06:27:33;102090.84;;;19.68;40.89
53960;BME280;39866;48.638;-2.020;2022-09-17T06:29:59;102099.88;;;19.67;40.35
53960;BME280;39866;48.638;-2.020;2022-09-17T06:32:25;102093.53;;;19.68;40.35
53960;BME280;39866;48.638;-2.020;2022-09-17T06:34:50;102100.56;;;19.72;40.46
53960;BME280;39866;48.638;-2.020;2022-09-17T06:37:15;102099.19;;;19.82;40.31
53960;BME280;39866;48.638;-2.020;2022-09-17T06:39:41;102098.97;;;19.87;39.92
53960;BME280;39866;48.638;-2.020;2022-09-17T06:42:06;102102.53;;;19.87;40.51
53960;BME280;39866;48.638;-2.020;2022-09-17T06:44:32;102097.22;;;19.86;40.54
53960;BME280;39866;48.638;-2.020;2022-09-17T06:46:57;102102.31;;;19.92;40.66
53960;BME280;39866;48.638;-2.020;2022-09-17T06:49:22;102113.00;;;19.95;40.52
53960;BME280;39866;48.638;-2.020;2022-09-17T06:51:48;102100.53;;;19.92;39.92
53960;BME280;39866;48.638;-2.020;2022-09-17T06:54:13;102104.97;;;19.93;40.25
53960;BME280;39866;48.638;-2.020;2022-09-17T06:56:39;102115.66;;;19.96;40.77
53960;BME280;39866;48.638;-2.020;2022-09-17T06:59:04;102110.16;;;19.98;39.95
53960;BME280;39866;48.638;-2.020;2022-09-17T07:01:29;102110.94;;;20.00;40.22
53960;BME280;39866;48.638;-2.020;2022-09-17T07:03:55;102111.13;;;19.97;40.73
53960;BME280;39866;48.638;-2.020;2022-09-17T07:06:20;102107.59;;;19.95;39.94
53960;BME280;39866;48.638;-2.020;2022-09-17T07:08:46;102114.84;;;19.94;39.63
53960;BME280;39866;48.638;-2.020;2022-09-17T07:11:12;102112.94;;;19.96;40.42
53960;BME280;39866;48.638;-2.020;2022-09-17T07:13:38;102118.19;;;19.99;40.60
53960;BME280;39866;48.638;-2.020;2022-09-17T07:16:04;102119.00;;;20.01;40.02
53960;BME280;39866;48.638;-2.020;2022-09-17T07:18:30;102116.88;;;20.08;40.29
53960;BME280;39866;48.638;-2.020;2022-09-17T07:21:00;102120.75;;;20.02;40.63
53960;BME280;39866;48.638;-2.020;2022-09-17T07:23:29;102118.94;;;20.03;40.63
53960;BME280;39866;48.638;-2.020;2022-09-17T07:25:56;102127.69;;;20.08;40.92
53960;BME280;39866;48.638;-2.020;2022-09-17T07:28:22;102123.25;;;20.07;40.86
53960;BME280;39866;48.638;-2.020;2022-09-17T07:30:49;102118.56;;;20.11;40.54
53960;BME280;39866;48.638;-2.020;2022-09-17T07:33:16;102126.59;;;20.12;40.96
53960;BME280;39866;48.638;-2.020;2022-09-17T07:35:51;102133.94;;;20.10;41.38
53960;BME280;39866;48.638;-2.020;2022-09-17T07:38:17;102126.59;;;20.12;40.77
53960;BME280;39866;48.638;-2.020;2022-09-17T07:40:42;102131.00;;;20.15;41.52
53960;BME280;39866;48.638;-2.020;2022-09-17T07:43:07;102125.69;;;20.13;40.88
53960;BME280;39866;48.638;-2.020;2022-09-17T07:45:33;102127.34;;;20.16;40.85
53960;BME280;39866;48.638;-2.020;2022-09-17T07:47:58;102128.03;;;20.21;41.28
53960;BME280;39866;48.638;-2.020;2022-09-17T07:50:24;102128.06;;;20.19;40.12
53960;BME280;39866;48.638;-2.020;2022-09-17T07:52:49;102127.72;;;20.27;41.73
53960;BME280;39866;48.638;-2.020;2022-09-17T07:55:14;102128.72;;;20.24;42.52
53960;BME280;39866;48.638;-2.020;2022-09-17T07:57:40;102139.50;;;20.26;42.68
53960;BME280;39866;48.638;-2.020;2022-09-17T08:00:06;102141.47;;;20.22;43.46
53960;BME280;39866;48.638;-2.020;2022-09-17T08:02:32;102137.88;;;20.22;43.37
53960;BME280;39866;48.638;-2.020;2022-09-17T08:04:57;102142.25;;;20.06;42.23
53960;BME280;39866;48.638;-2.020;2022-09-17T08:07:23;102141.38;;;20.05;42.93
53960;BME280;39866;48.638;-2.020;2022-09-17T08:09:49;102128.94;;;20.01;42.67
53960;BME280;39866;48.638;-2.020;2022-09-17T08:12:14;102137.59;;;20.09;42.84
53960;BME280;39866;48.638;-2.020;2022-09-17T08:14:39;102142.47;;;20.20;42.92
53960;BME280;39866;48.638;-2.020;2022-09-17T08:17:07;102138.84;;;20.21;42.30
53960;BME280;39866;48.638;-2.020;2022-09-17T08:19:33;102143.16;;;20.25;41.78
53960;BME280;39866;48.638;-2.020;2022-09-17T08:21:58;102143.44;;;20.19;40.94
53960;BME280;39866;48.638;-2.020;2022-09-17T08:24:24;102145.91;;;20.23;41.88
53960;BME280;39866;48.638;-2.020;2022-09-17T08:26:49;102154.16;;;20.20;41.22
53960;BME280;39866;48.638;-2.020;2022-09-17T08:29:15;102152.41;;;20.19;41.83
53960;BME280;39866;48.638;-2.020;2022-09-17T08:31:40;102155.84;;;20.23;41.98
53960;BME280;39866;48.638;-2.020;2022-09-17T08:34:07;102157.59;;;20.24;41.88
53960;BME280;39866;48.638;-2.020;2022-09-17T08:36:33;102158.44;;;20.26;41.95
53960;BME280;39866;48.638;-2.020;2022-09-17T08:38:58;102163.88;;;20.24;41.30
53960;BME280;39866;48.638;-2.020;2022-09-17T08:41:54;102170.63;;;20.35;41.73
53960;BME280;39866;48.638;-2.020;2022-09-17T08:44:38;102178.44;;;20.41;41.94
53960;BME280;39866;48.638;-2.020;2022-09-17T08:47:29;102169.41;;;20.42;42.16
53960;BME280;39866;48.638;-2.020;2022-09-17T08:49:59;102171.91;;;20.46;42.66
53960;BME280;39866;48.638;-2.020;2022-09-17T08:52:53;102170.00;;;20.48;42.83
53960;BME280;39866;48.638;-2.020;2022-09-17T09:00:51;102176.19;;;20.32;42.31
53960;BME280;39866;48.638;-2.020;2022-09-17T09:06:04;102177.88;;;20.34;42.11
53960;BME280;39866;48.638;-2.020;2022-09-17T09:08:46;102182.19;;;20.38;41.32
53960;BME280;39866;48.638;-2.020;2022-09-17T09:11:15;102180.06;;;20.26;39.09
53960;BME280;39866;48.638;-2.020;2022-09-17T09:13:46;102179.88;;;20.10;37.11
53960;BME280;39866;48.638;-2.020;2022-09-17T09:16:21;102180.59;;;19.95;36.86
53960;BME280;39866;48.638;-2.020;2022-09-17T09:18:58;102189.38;;;19.79;36.51
53960;BME280;39866;48.638;-2.020;2022-09-17T09:21:29;102200.72;;;19.67;37.01
53960;BME280;39866;48.638;-2.020;2022-09-17T09:24:25;102195.13;;;19.92;37.21
53960;BME280;39866;48.638;-2.020;2022-09-17T09:29:49;102194.59;;;20.04;37.23
53960;BME280;39866;48.638;-2.020;2022-09-17T09:35:28;102193.13;;;19.96;37.84
53960;BME280;39866;48.638;-2.020;2022-09-17T09:41:08;102195.03;;;20.14;36.99
53960;BME280;39866;48.638;-2.020;2022-09-17T09:43:46;102191.75;;;20.26;37.65
53960;BME280;39866;48.638;-2.020;2022-09-17T09:57:55;102190.97;;;20.04;36.99
53960;BME280;39866;48.638;-2.020;2022-09-17T10:03:02;102183.16;;;19.98;37.46
53960;BME280;39866;48.638;-2.020;2022-09-17T10:05:30;102189.53;;;19.76;37.00
53960;BME280;39866;48.638;-2.020;2022-09-17T10:07:56;102188.03;;;19.69;36.89
53960;BME280;39866;48.638;-2.020;2022-09-17T10:10:22;102186.00;;;19.74;38.87
53960;BME280;39866;48.638;-2.020;2022-09-17T10:12:47;102194.34;;;19.48;40.00
53960;BME280;39866;48.638;-2.020;2022-09-17T10:15:24;102198.34;;;19.60;39.26
53960;BME280;39866;48.638;-2.020;2022-09-17T10:18:10;102200.09;;;19.61;39.31
53960;BME280;39866;48.638;-2.020;2022-09-17T10:20:51;102203.63;;;19.63;39.50
53960;BME280;39866;48.638;-2.020;2022-09-17T10:23:18;102199.09;;;19.63;39.22
53960;BME280;39866;48.638;-2.020;2022-09-17T10:25:45;102198.88;;;19.47;39.75
53960;BME280;39866;48.638;-2.020;2022-09-17T10:28:29;102193.63;;;19.43;38.80
53960;BME280;39866;48.638;-2.020;2022-09-17T10:30:57;102194.19;;;19.51;39.38
53960;BME280;39866;48.638;-2.020;2022-09-17T10:33:30;102190.81;;;19.46;39.87
53960;BME280;39866;48.638;-2.020;2022-09-17T10:35:59;102201.41;;;19.50;39.01
53960;BME280;39866;48.638;-2.020;2022-09-17T10:38:28;102201.97;;;19.81;39.00
53960;BME280;39866;48.638;-2.020;2022-09-17T10:41:07;102202.63;;;19.65;37.94
53960;BME280;39866;48.638;-2.020;2022-09-17T10:43:33;102193.81;;;19.60;38.31
53960;BME280;39866;48.638;-2.020;2022-09-17T10:45:59;102194.13;;;19.32;38.37
53960;BME280;39866;48.638;-2.020;2022-09-17T10:48:27;102198.47;;;19.57;38.62
53960;BME280;39866;48.638;-2.020;2022-09-17T10:50:55;102197.97;;;19.69;39.24
53960;BME280;39866;48.638;-2.020;2022-09-17T10:53:21;102192.97;;;19.58;38.46
53960;BME280;39866;48.638;-2.020;2022-09-17T10:56:03;102199.19;;;19.82;38.18
53960;BME280;39866;48.638;-2.020;2022-09-17T10:58:48;102197.88;;;19.91;37.92
53960;BME280;39866;48.638;-2.020;2022-09-17T11:01:58;102194.59;;;20.04;39.01
53960;BME280;39866;48.638;-2.020;2022-09-17T11:09:37;102186.72;;;19.58;38.55
53960;BME280;39866;48.638;-2.020;2022-09-17T11:18:01;102181.22;;;19.59;38.25
53960;BME280;39866;48.638;-2.020;2022-09-17T11:23:56;102173.69;;;19.67;37.89
53960;BME280;39866;48.638;-2.020;2022-09-17T11:32:03;102173.34;;;19.95;38.27
53960;BME280;39866;48.638;-2.020;2022-09-17T11:34:38;102163.84;;;19.66;38.05
53960;BME280;39866;48.638;-2.020;2022-09-17T11:37:22;102171.91;;;19.88;37.64
53960;BME280;39866;48.638;-2.020;2022-09-17T11:42:23;102158.38;;;19.88;38.77
53960;BME280;39866;48.638;-2.020;2022-09-17T11:44:57;102156.69;;;19.86;37.95
53960;BME280;39866;48.638;-2.020;2022-09-17T11:47:46;102163.28;;;19.78;38.36
53960;BME280;39866;48.638;-2.020;2022-09-17T11:50:24;102155.75;;;19.66;36.71
53960;BME280;39866;48.638;-2.020;2022-09-17T11:53:05;102150.47;;;19.63;38.41
53960;BME280;39866;48.638;-2.020;2022-09-17T11:56:01;102150.19;;;19.69;38.74
53960;BME280;39866;48.638;-2.020;2022-09-17T11:58:39;102161.91;;;20.09;38.61
53960;BME280;39866;48.638;-2.020;2022-09-17T12:01:18;102152.97;;;20.07;37.46
53960;BME280;39866;48.638;-2.020;2022-09-17T12:03:52;102158.44;;;19.66;37.91
53960;BME280;39866;48.638;-2.020;2022-09-17T12:06:31;102157.75;;;19.82;37.88
53960;BME280;39866;48.638;-2.020;2022-09-17T12:09:03;102155.72;;;19.87;37.71
53960;BME280;39866;48.638;-2.020;2022-09-17T12:12:23;102158.16;;;19.93;38.48
53960;BME280;39866;48.638;-2.020;2022-09-17T12:14:46;102161.41;;;20.01;37.62
53960;BME280;39866;48.638;-2.020;2022-09-17T12:17:16;102156.47;;;20.29;37.41
53960;BME280;39866;48.638;-2.020;2022-09-17T12:19:50;102159.22;;;20.09;38.65
53960;BME280;39866;48.638;-2.020;2022-09-17T12:22:31;102157.59;;;20.05;38.46
53960;BME280;39866;48.638;-2.020;2022-09-17T12:25:00;102161.69;;;19.74;37.78
53960;BME280;39866;48.638;-2.020;2022-09-17T12:27:44;102162.31;;;20.00;37.74
53960;BME280;39866;48.638;-2.020;2022-09-17T12:30:20;102145.19;;;20.01;37.44
53960;BME280;39866;48.638;-2.020;2022-09-17T12:32:58;102144.88;;;20.07;38.83
53960;BME280;39866;48.638;-2.020;2022-09-17T12:35:50;102159.91;;;19.94;38.19
53960;BME280;39866;48.638;-2.020;2022-09-17T12:46:46;102141.63;;;19.80;38.36
53960;BME280;39866;48.638;-2.020;2022-09-17T13:00:07;102140.16;;;19.92;37.33
53960;BME280;39866;48.638;-2.020;2022-09-17T13:11:07;102134.72;;;20.12;36.33
53960;BME280;39866;48.638;-2.020;2022-09-17T13:16:20;102134.00;;;20.27;36.56
53960;BME280;39866;48.638;-2.020;2022-09-17T13:18:55;102136.34;;;20.35;36.99
53960;BME280;39866;48.638;-2.020;2022-09-17T13:21:32;102135.13;;;20.42;37.54
53960;BME280;39866;48.638;-2.020;2022-09-17T13:23:58;102130.72;;;20.21;37.19
53960;BME280;39866;48.638;-2.020;2022-09-17T13:26:35;102130.56;;;20.24;37.14
53960;BME280;39866;48.638;-2.020;2022-09-17T13:29:01;102127.13;;;20.39;36.58
53960;BME280;39866;48.638;-2.020;2022-09-17T13:34:01;102123.78;;;20.53;36.42
53960;BME280;39866;48.638;-2.020;2022-09-17T13:36:39;102119.00;;;20.20;37.15
53960;BME280;39866;48.638;-2.020;2022-09-17T13:39:11;102109.72;;;20.45;36.69
53960;BME280;39866;48.638;-2.020;2022-09-17T13:42:22;102108.50;;;20.14;37.55
53960;BME280;39866;48.638;-2.020;2022-09-17T13:45:06;102097.25;;;20.23;36.99
53960;BME280;39866;48.638;-2.020;2022-09-17T13:47:37;102116.53;;;20.35;37.02
53960;BME280;39866;48.638;-2.020;2022-09-17T13:50:07;102117.59;;;20.70;36.75
53960;BME280;39866;48.638;-2.020;2022-09-17T13:52:47;102123.78;;;20.53;36.35
53960;BME280;39866;48.638;-2.020;2022-09-17T13:58:09;102124.03;;;20.85;36.43
53960;BME280;39866;48.638;-2.020;2022-09-17T14:21:42;102101.09;;;22.12;33.39
53960;BME280;39866;48.638;-2.020;2022-09-17T14:24:33;102105.97;;;22.54;32.75
53960;BME280;39866;48.638;-2.020;2022-09-17T14:29:47;102088.38;;;22.30;32.57
53960;BME280;39866;48.638;-2.020;2022-09-17T14:32:17;102099.13;;;22.15;33.18
53960;BME280;39866;48.638;-2.020;2022-09-17T14:34:46;102095.03;;;21.91;33.43
53960;BME280;39866;48.638;-2.020;2022-09-17T14:37:17;102091.47;;;22.06;33.58
53960;BME280;39866;48.638;-2.020;2022-09-17T14:39:45;102095.44;;;22.16;33.89
53960;BME280;39866;48.638;-2.020;2022-09-17T14:42:15;102095.22;;;22.04;33.41
53960;BME280;39866;48.638;-2.020;2022-09-17T14:44:58;102092.66;;;21.85;33.91
53960;BME280;39866;48.638;-2.020;2022-09-17T14:47:25;102097.59;;;21.43;34.57
53960;BME280;39866;48.638;-2.020;2022-09-17T14:49:51;102087.00;;;21.56;34.32
53960;BME280;39866;48.638;-2.020;2022-09-17T14:52:28;102082.50;;;21.55;35.04
53960;BME280;39866;48.638;-2.020;2022-09-17T14:55:15;102078.25;;;22.00;34.29
53960;BME280;39866;48.638;-2.020;2022-09-17T14:57:43;102086.53;;;21.81;34.73
53960;BME280;39866;48.638;-2.020;2022-09-17T15:00:17;102089.50;;;21.59;34.76
53960;BME280;39866;48.638;-2.020;2022-09-17T15:02:43;102087.84;;;21.57;34.61
53960;BME280;39866;48.638;-2.020;2022-09-17T15:07:40;102084.91;;;21.61;35.02
53960;BME280;39866;48.638;-2.020;2022-09-17T15:10:10;102075.44;;;21.86;34.41
53960;BME280;39866;48.638;-2.020;2022-09-17T15:12:37;102070.69;;;21.73;34.91
53960;BME280;39866;48.638;-2.020;2022-09-17T15:15:03;102066.25;;;21.88;34.90
53960;BME280;39866;48.638;-2.020;2022-09-17T15:17:29;102074.94;;;22.11;34.83
53960;BME280;39866;48.638;-2.020;2022-09-17T15:19:56;102069.84;;;22.38;34.87
53960;BME280;39866;48.638;-2.020;2022-09-17T15:22:27;102061.44;;;22.27;35.52
53960;BME280;39866;48.638;-2.020;2022-09-17T15:25:03;102071.13;;;21.82;34.72
53960;BME280;39866;48.638;-2.020;2022-09-17T15:27:40;102072.53;;;21.73;34.89
53960;BME280;39866;48.638;-2.020;2022-09-17T15:30:15;102079.47;;;21.61;35.17
53960;BME280;39866;48.638;-2.020;2022-09-17T15:32:47;102078.75;;;21.58;34.98
53960;BME280;39866;48.638;-2.020;2022-09-17T15:37:46;102073.91;;;21.64;34.54